sensor_id;sensor_type;location;lat;lon;timestamp;P1;durP1;ratioP1;P2;durP2;ratioP2
8094;SDS011;4090;49.270;8.696;2022-07-23T00:02:23;8.75;;;7.30;;
8094;SDS011;4090;49.270;8.696;2022-07-23T00:05:05;11.65;;;8.00;;
8094;SDS011;4090;49.270;8.696;2022-07-23T00:07:48;9.82;;;7.80;;
8094;SDS011;4090;49.270;8.696;2022-07-23T00:10:29;9.32;;;7.80;;
8094;SDS011;4090;49.270;8.696;2022-07-23T00:13:11;8.30;;;7.40;;
8094;SDS011;4090;49.270;8.696;2022-07-23T00:15:54;9.35;;;7.90;;
8094;SDS011;4090;49.270;8.696;2022-07-23T00:18:36;11.60;;;7.78;;
8094;SDS011;4090;49.270;8.696;2022-07-23T00:21:18;10.02;;;7.95;;
8094;SDS011;4090;49.270;8.696;2022-07-23T00:24:00;10.75;;;7.97;;
8094;SDS011;4090;49.270;8.696;2022-07-23T00:26:42;11.38;;;7.88;;
8094;SDS011;4090;49.270;8.696;2022-07-23T00:29:24;10.48;;;8.10;;
8094;SDS011;4090;49.270;8.696;2022-07-23T00:32:07;8.90;;;7.28;;
8094;SDS011;4090;49.270;8.696;2022-07-23T00:34:49;11.15;;;7.95;;
8094;SDS011;4090;49.270;8.696;2022-07-23T00:37:31;10.15;;;7.90;;
8094;SDS011;4090;49.270;8.696;2022-07-23T00:40:12;8.98;;;8.05;;
8094;SDS011;4090;49.270;8.696;2022-07-23T00:42:55;8.93;;;7.85;;
8094;SDS011;4090;49.270;8.696;2022-07-23T00:45:36;12.23;;;8.13;;
8094;SDS011;4090;49.270;8.696;2022-07-23T00:48:20;12.15;;;7.80;;
8094;SDS011;4090;49.270;8.696;2022-07-23T00:51:02;11.30;;;8.25;;
8094;SDS011;4090;49.270;8.696;2022-07-23T00:53:44;10.40;;;8.20;;
8094;SDS011;4090;49.270;8.696;2022-07-23T00:56:26;11.73;;;8.10;;
8094;SDS011;4090;49.270;8.696;2022-07-23T00:59:08;13.85;;;8.85;;
8094;SDS011;4090;49.270;8.696;2022-07-23T01:01:50;9.18;;;8.15;;
8094;SDS011;4090;49.270;8.696;2022-07-23T01:04:33;10.85;;;8.10;;
8094;SDS011;4090;49.270;8.696;2022-07-23T01:07:15;10.30;;;8.55;;
8094;SDS011;4090;49.270;8.696;2022-07-23T01:09:58;10.00;;;8.10;;
8094;SDS011;4090;49.270;8.696;2022-07-23T01:12:41;11.38;;;8.70;;
8094;SDS011;4090;49.270;8.696;2022-07-23T01:15:23;11.65;;;8.45;;
8094;SDS011;4090;49.270;8.696;2022-07-23T01:18:05;12.07;;;8.10;;
8094;SDS011;4090;49.270;8.696;2022-07-23T01:20:50;12.65;;;8.88;;
8094;SDS011;4090;49.270;8.696;2022-07-23T01:23:34;12.45;;;9.00;;
8094;SDS011;4090;49.270;8.696;2022-07-23T01:26:15;11.88;;;8.32;;
8094;SDS011;4090;49.270;8.696;2022-07-23T01:28:58;15.70;;;9.15;;
8094;SDS011;4090;49.270;8.696;2022-07-23T01:31:40;11.52;;;9.07;;
8094;SDS011;4090;49.270;8.696;2022-07-23T01:34:22;11.00;;;8.73;;
8094;SDS011;4090;49.270;8.696;2022-07-23T01:37:04;11.85;;;8.77;;
8094;SDS011;4090;49.270;8.696;2022-07-23T01:39:47;11.40;;;8.70;;
8094;SDS011;4090;49.270;8.696;2022-07-23T01:42:29;13.32;;;8.38;;
8094;SDS011;4090;49.270;8.696;2022-07-23T01:45:11;12.68;;;9.13;;
8094;SDS011;4090;49.270;8.696;2022-07-23T01:47:57;11.07;;;8.18;;
8094;SDS011;4090;49.270;8.696;2022-07-23T01:50:39;12.25;;;8.60;;
8094;SDS011;4090;49.270;8.696;2022-07-23T01:53:35;11.50;;;8.48;;
8094;SDS011;4090;49.270;8.696;2022-07-23T01:56:18;10.85;;;8.32;;
8094;SDS011;4090;49.270;8.696;2022-07-23T01:59:01;12.52;;;8.95;;
8094;SDS011;4090;49.270;8.696;2022-07-23T02:01:43;11.68;;;8.00;;
8094;SDS011;4090;49.270;8.696;2022-07-23T02:04:25;10.05;;;7.95;;
8094;SDS011;4090;49.270;8.696;2022-07-23T02:07:07;9.57;;;7.35;;
8094;SDS011;4090;49.270;8.696;2022-07-23T02:09:48;9.43;;;7.32;;
8094;SDS011;4090;49.270;8.696;2022-07-23T02:12:32;9.38;;;7.13;;
8094;SDS011;4090;49.270;8.696;2022-07-23T02:15:14;10.70;;;7.10;;
8094;SDS011;4090;49.270;8.696;2022-07-23T02:17:55;8.57;;;7.05;;
8094;SDS011;4090;49.270;8.696;2022-07-23T02:20:38;15.18;;;7.22;;
8094;SDS011;4090;49.270;8.696;2022-07-23T02:23:21;9.38;;;6.97;;
8094;SDS011;4090;49.270;8.696;2022-07-23T02:26:04;8.82;;;6.35;;
8094;SDS011;4090;49.270;8.696;2022-07-23T02:28:48;10.13;;;6.75;;
8094;SDS011;4090;49.270;8.696;2022-07-23T02:31:31;7.70;;;6.82;;
8094;SDS011;4090;49.270;8.696;2022-07-23T02:34:13;9.75;;;6.85;;
8094;SDS011;4090;49.270;8.696;2022-07-23T02:36:55;8.98;;;6.70;;
8094;SDS011;4090;49.270;8.696;2022-07-23T02:39:37;8.20;;;6.70;;
8094;SDS011;4090;49.270;8.696;2022-07-23T02:42:19;9.23;;;7.03;;
8094;SDS011;4090;49.270;8.696;2022-07-23T02:45:05;9.05;;;7.03;;
8094;SDS011;4090;49.270;8.696;2022-07-23T02:47:48;8.07;;;6.47;;
8094;SDS011;4090;49.270;8.696;2022-07-23T02:50:30;10.00;;;7.20;;
8094;SDS011;4090;49.270;8.696;2022-07-23T02:53:13;7.20;;;6.13;;
8094;SDS011;4090;49.270;8.696;2022-07-23T02:55:56;8.70;;;6.50;;
8094;SDS011;4090;49.270;8.696;2022-07-23T02:58:38;9.65;;;7.00;;
8094;SDS011;4090;49.270;8.696;2022-07-23T03:01:21;9.35;;;6.55;;
8094;SDS011;4090;49.270;8.696;2022-07-23T03:04:04;10.43;;;6.40;;
8094;SDS011;4090;49.270;8.696;2022-07-23T03:06:45;8.55;;;6.82;;
8094;SDS011;4090;49.270;8.696;2022-07-23T03:09:27;7.63;;;6.53;;
8094;SDS011;4090;49.270;8.696;2022-07-23T03:12:09;7.53;;;6.63;;
8094;SDS011;4090;49.270;8.696;2022-07-23T03:14:51;10.82;;;5.90;;
8094;SDS011;4090;49.270;8.696;2022-07-23T03:17:34;8.73;;;6.28;;
8094;SDS011;4090;49.270;8.696;2022-07-23T03:20:17;8.60;;;6.22;;
8094;SDS011;4090;49.270;8.696;2022-07-23T03:22:59;13.93;;;7.38;;
8094;SDS011;4090;49.270;8.696;2022-07-23T03:25:42;9.05;;;6.18;;
8094;SDS011;4090;49.270;8.696;2022-07-23T03:28:25;8.05;;;5.57;;
8094;SDS011;4090;49.270;8.696;2022-07-23T03:31:06;7.22;;;6.15;;
8094;SDS011;4090;49.270;8.696;2022-07-23T03:33:50;9.57;;;5.80;;
8094;SDS011;4090;49.270;8.696;2022-07-23T03:36:31;8.35;;;6.47;;
8094;SDS011;4090;49.270;8.696;2022-07-23T03:39:13;9.18;;;6.07;;
8094;SDS011;4090;49.270;8.696;2022-07-23T03:41:55;8.57;;;6.35;;
8094;SDS011;4090;49.270;8.696;2022-07-23T03:44:37;9.65;;;6.63;;
8094;SDS011;4090;49.270;8.696;2022-07-23T03:47:19;8.43;;;5.90;;
8094;SDS011;4090;49.270;8.696;2022-07-23T03:50:04;8.38;;;6.22;;
8094;SDS011;4090;49.270;8.696;2022-07-23T03:52:46;9.43;;;6.25;;
8094;SDS011;4090;49.270;8.696;2022-07-23T03:55:28;7.70;;;5.72;;
8094;SDS011;4090;49.270;8.696;2022-07-23T03:58:10;8.98;;;5.47;;
8094;SDS011;4090;49.270;8.696;2022-07-23T04:00:52;8.82;;;6.07;;
8094;SDS011;4090;49.270;8.696;2022-07-23T04:03:34;6.57;;;5.50;;
8094;SDS011;4090;49.270;8.696;2022-07-23T04:06:17;7.85;;;5.78;;
8094;SDS011;4090;49.270;8.696;2022-07-23T04:09:00;10.60;;;5.80;;
8094;SDS011;4090;49.270;8.696;2022-07-23T04:11:43;7.53;;;6.00;;
8094;SDS011;4090;49.270;8.696;2022-07-23T04:14:25;8.25;;;5.47;;
8094;SDS011;4090;49.270;8.696;2022-07-23T04:17:08;10.05;;;6.03;;
8094;SDS011;4090;49.270;8.696;2022-07-23T04:19:50;7.88;;;5.60;;
8094;SDS011;4090;49.270;8.696;2022-07-23T04:22:37;8.40;;;6.05;;
8094;SDS011;4090;49.270;8.696;2022-07-23T04:25:19;7.85;;;6.35;;
8094;SDS011;4090;49.270;8.696;2022-07-23T04:28:01;8.25;;;6.65;;
8094;SDS011;4090;49.270;8.696;2022-07-23T04:30:43;7.63;;;6.72;;
8094;SDS011;4090;49.270;8.696;2022-07-23T04:33:27;11.32;;;6.47;;
8094;SDS011;4090;49.270;8.696;2022-07-23T04:36:11;9.55;;;6.90;;
8094;SDS011;4090;49.270;8.696;2022-07-23T04:38:55;9.52;;;6.63;;
8094;SDS011;4090;49.270;8.696;2022-07-23T04:41:36;7.55;;;6.10;;
8094;SDS011;4090;49.270;8.696;2022-07-23T04:44:18;8.10;;;6.38;;
8094;SDS011;4090;49.270;8.696;2022-07-23T04:47:01;9.18;;;6.38;;
8094;SDS011;4090;49.270;8.696;2022-07-23T04:49:43;8.82;;;6.45;;
8094;SDS011;4090;49.270;8.696;2022-07-23T04:52:25;7.45;;;6.32;;
8094;SDS011;4090;49.270;8.696;2022-07-23T04:55:08;8.57;;;6.03;;
8094;SDS011;4090;49.270;8.696;2022-07-23T04:57:50;8.82;;;6.63;;
8094;SDS011;4090;49.270;8.696;2022-07-23T05:00:32;8.38;;;6.32;;
8094;SDS011;4090;49.270;8.696;2022-07-23T05:03:14;7.82;;;6.05;;
8094;SDS011;4090;49.270;8.696;2022-07-23T05:05:59;7.78;;;6.22;;
8094;SDS011;4090;49.270;8.696;2022-07-23T05:08:41;9.70;;;6.60;;
8094;SDS011;4090;49.270;8.696;2022-07-23T05:11:26;9.63;;;6.85;;
8094;SDS011;4090;49.270;8.696;2022-07-23T05:14:07;9.80;;;6.47;;
8094;SDS011;4090;49.270;8.696;2022-07-23T05:16:52;9.82;;;6.93;;
8094;SDS011;4090;49.270;8.696;2022-07-23T05:19:37;11.38;;;6.53;;
8094;SDS011;4090;49.270;8.696;2022-07-23T05:22:19;10.18;;;7.53;;
8094;SDS011;4090;49.270;8.696;2022-07-23T05:25:01;9.23;;;7.32;;
8094;SDS011;4090;49.270;8.696;2022-07-23T05:27:46;9.38;;;6.80;;
8094;SDS011;4090;49.270;8.696;2022-07-23T05:30:28;10.52;;;7.00;;
8094;SDS011;4090;49.270;8.696;2022-07-23T05:33:14;11.93;;;7.50;;
8094;SDS011;4090;49.270;8.696;2022-07-23T05:35:59;10.07;;;7.55;;
8094;SDS011;4090;49.270;8.696;2022-07-23T05:38:43;9.65;;;7.53;;
8094;SDS011;4090;49.270;8.696;2022-07-23T05:41:25;11.20;;;7.32;;
8094;SDS011;4090;49.270;8.696;2022-07-23T05:44:08;11.27;;;7.65;;
8094;SDS011;4090;49.270;8.696;2022-07-23T05:46:53;12.13;;;8.65;;
8094;SDS011;4090;49.270;8.696;2022-07-23T05:49:38;11.55;;;8.35;;
8094;SDS011;4090;49.270;8.696;2022-07-23T05:52:20;10.55;;;7.20;;
8094;SDS011;4090;49.270;8.696;2022-07-23T05:55:29;11.10;;;8.00;;
8094;SDS011;4090;49.270;8.696;2022-07-23T05:58:12;11.15;;;7.93;;
8094;SDS011;4090;49.270;8.696;2022-07-23T06:00:55;9.05;;;7.90;;
8094;SDS011;4090;49.270;8.696;2022-07-23T06:03:37;13.63;;;7.82;;
8094;SDS011;4090;49.270;8.696;2022-07-23T06:06:19;10.57;;;6.95;;
8094;SDS011;4090;49.270;8.696;2022-07-23T06:09:01;10.85;;;7.50;;
8094;SDS011;4090;49.270;8.696;2022-07-23T06:11:44;10.60;;;7.45;;
8094;SDS011;4090;49.270;8.696;2022-07-23T06:14:26;11.25;;;8.15;;
8094;SDS011;4090;49.270;8.696;2022-07-23T06:17:12;12.05;;;7.43;;
8094;SDS011;4090;49.270;8.696;2022-07-23T06:19:54;10.40;;;8.57;;
8094;SDS011;4090;49.270;8.696;2022-07-23T06:22:36;11.32;;;7.95;;
8094;SDS011;4090;49.270;8.696;2022-07-23T06:25:18;9.75;;;7.78;;
8094;SDS011;4090;49.270;8.696;2022-07-23T06:28:00;12.88;;;8.30;;
8094;SDS011;4090;49.270;8.696;2022-07-23T06:30:42;10.82;;;7.72;;
8094;SDS011;4090;49.270;8.696;2022-07-23T06:33:25;14.80;;;8.27;;
8094;SDS011;4090;49.270;8.696;2022-07-23T06:36:07;12.65;;;8.05;;
8094;SDS011;4090;49.270;8.696;2022-07-23T06:38:49;12.10;;;8.10;;
8094;SDS011;4090;49.270;8.696;2022-07-23T06:41:31;10.45;;;7.53;;
8094;SDS011;4090;49.270;8.696;2022-07-23T06:44:14;11.07;;;7.75;;
8094;SDS011;4090;49.270;8.696;2022-07-23T06:46:57;10.75;;;8.02;;
8094;SDS011;4090;49.270;8.696;2022-07-23T06:49:40;11.98;;;9.00;;
8094;SDS011;4090;49.270;8.696;2022-07-23T06:52:22;11.40;;;8.45;;
8094;SDS011;4090;49.270;8.696;2022-07-23T06:55:04;12.73;;;8.25;;
8094;SDS011;4090;49.270;8.696;2022-07-23T06:57:46;12.60;;;8.40;;
8094;SDS011;4090;49.270;8.696;2022-07-23T07:00:28;12.32;;;9.00;;
8094;SDS011;4090;49.270;8.696;2022-07-23T07:03:12;14.57;;;9.25;;
8094;SDS011;4090;49.270;8.696;2022-07-23T07:05:56;11.88;;;8.27;;
8094;SDS011;4090;49.270;8.696;2022-07-23T07:08:38;10.13;;;8.45;;
8094;SDS011;4090;49.270;8.696;2022-07-23T07:11:20;13.75;;;8.57;;
8094;SDS011;4090;49.270;8.696;2022-07-23T07:14:02;12.23;;;9.20;;
8094;SDS011;4090;49.270;8.696;2022-07-23T07:16:44;14.93;;;9.27;;
8094;SDS011;4090;49.270;8.696;2022-07-23T07:19:26;15.00;;;10.60;;
8094;SDS011;4090;49.270;8.696;2022-07-23T07:22:09;11.45;;;8.95;;
8094;SDS011;4090;49.270;8.696;2022-07-23T07:24:51;13.68;;;8.88;;
8094;SDS011;4090;49.270;8.696;2022-07-23T07:27:33;18.60;;;10.18;;
8094;SDS011;4090;49.270;8.696;2022-07-23T07:30:15;15.80;;;9.27;;
8094;SDS011;4090;49.270;8.696;2022-07-23T07:32:57;16.90;;;9.82;;
8094;SDS011;4090;49.270;8.696;2022-07-23T07:35:38;20.63;;;11.05;;
8094;SDS011;4090;49.270;8.696;2022-07-23T07:38:22;23.48;;;9.98;;
8094;SDS011;4090;49.270;8.696;2022-07-23T07:41:04;15.45;;;10.20;;
8094;SDS011;4090;49.270;8.696;2022-07-23T07:43:46;25.60;;;10.73;;
8094;SDS011;4090;49.270;8.696;2022-07-23T07:46:27;23.67;;;10.18;;
8094;SDS011;4090;49.270;8.696;2022-07-23T07:49:10;16.27;;;10.02;;
8094;SDS011;4090;49.270;8.696;2022-07-23T07:51:52;20.27;;;10.55;;
8094;SDS011;4090;49.270;8.696;2022-07-23T07:54:35;16.98;;;10.40;;
8094;SDS011;4090;49.270;8.696;2022-07-23T07:57:17;15.55;;;9.68;;
8094;SDS011;4090;49.270;8.696;2022-07-23T07:59:59;16.27;;;10.05;;
8094;SDS011;4090;49.270;8.696;2022-07-23T08:02:42;14.55;;;9.93;;
8094;SDS011;4090;49.270;8.696;2022-07-23T08:05:26;14.50;;;10.18;;
8094;SDS011;4090;49.270;8.696;2022-07-23T08:08:09;16.05;;;9.25;;
8094;SDS011;4090;49.270;8.696;2022-07-23T08:10:56;13.27;;;9.43;;
8094;SDS011;4090;49.270;8.696;2022-07-23T08:13:38;12.98;;;9.43;;
8094;SDS011;4090;49.270;8.696;2022-07-23T08:16:19;13.77;;;9.10;;
8094;SDS011;4090;49.270;8.696;2022-07-23T08:19:01;17.58;;;9.65;;
8094;SDS011;4090;49.270;8.696;2022-07-23T08:21:43;16.13;;;9.02;;
8094;SDS011;4090;49.270;8.696;2022-07-23T08:24:25;14.27;;;9.05;;
8094;SDS011;4090;49.270;8.696;2022-07-23T08:27:08;13.25;;;8.93;;
8094;SDS011;4090;49.270;8.696;2022-07-23T08:29:50;14.30;;;9.30;;
8094;SDS011;4090;49.270;8.696;2022-07-23T08:32:32;12.90;;;8.82;;
8094;SDS011;4090;49.270;8.696;2022-07-23T08:35:14;16.95;;;8.95;;
8094;SDS011;4090;49.270;8.696;2022-07-23T08:37:56;15.95;;;9.98;;
8094;SDS011;4090;49.270;8.696;2022-07-23T08:40:40;15.60;;;10.05;;
8094;SDS011;4090;49.270;8.696;2022-07-23T08:43:25;22.08;;;8.45;;
8094;SDS011;4090;49.270;8.696;2022-07-23T08:46:07;12.10;;;8.68;;
8094;SDS011;4090;49.270;8.696;2022-07-23T08:48:50;20.98;;;9.75;;
8094;SDS011;4090;49.270;8.696;2022-07-23T08:51:32;12.30;;;9.00;;
8094;SDS011;4090;49.270;8.696;2022-07-23T08:54:15;13.20;;;8.82;;
8094;SDS011;4090;49.270;8.696;2022-07-23T08:56:57;14.25;;;8.95;;
8094;SDS011;4090;49.270;8.696;2022-07-23T08:59:40;14.45;;;9.35;;
8094;SDS011;4090;49.270;8.696;2022-07-23T09:02:22;11.38;;;8.68;;
8094;SDS011;4090;49.270;8.696;2022-07-23T09:05:04;16.80;;;9.27;;
8094;SDS011;4090;49.270;8.696;2022-07-23T09:08:05;14.23;;;9.43;;
8094;SDS011;4090;49.270;8.696;2022-07-23T09:10:49;17.25;;;9.50;;
8094;SDS011;4090;49.270;8.696;2022-07-23T09:13:35;15.95;;;9.30;;
8094;SDS011;4090;49.270;8.696;2022-07-23T09:16:24;11.85;;;9.05;;
8094;SDS011;4090;49.270;8.696;2022-07-23T09:19:07;12.20;;;9.05;;
8094;SDS011;4090;49.270;8.696;2022-07-23T09:21:49;12.05;;;8.60;;
8094;SDS011;4090;49.270;8.696;2022-07-23T09:24:31;12.40;;;8.45;;
8094;SDS011;4090;49.270;8.696;2022-07-23T09:27:12;11.38;;;7.95;;
8094;SDS011;4090;49.270;8.696;2022-07-23T09:29:55;14.50;;;8.85;;
8094;SDS011;4090;49.270;8.696;2022-07-23T09:32:39;15.52;;;8.85;;
8094;SDS011;4090;49.270;8.696;2022-07-23T09:35:21;21.23;;;8.73;;
8094;SDS011;4090;49.270;8.696;2022-07-23T09:38:27;13.68;;;8.90;;
8094;SDS011;4090;49.270;8.696;2022-07-23T09:41:10;15.55;;;8.57;;
8094;SDS011;4090;49.270;8.696;2022-07-23T09:43:56;12.38;;;8.73;;
8094;SDS011;4090;49.270;8.696;2022-07-23T09:46:38;14.07;;;8.52;;
8094;SDS011;4090;49.270;8.696;2022-07-23T09:49:23;20.08;;;9.60;;
8094;SDS011;4090;49.270;8.696;2022-07-23T09:52:05;12.88;;;8.35;;
8094;SDS011;4090;49.270;8.696;2022-07-23T09:54:47;12.48;;;8.63;;
8094;SDS011;4090;49.270;8.696;2022-07-23T09:57:38;10.70;;;8.50;;
8094;SDS011;4090;49.270;8.696;2022-07-23T10:00:23;13.65;;;9.80;;
8094;SDS011;4090;49.270;8.696;2022-07-23T10:03:06;12.57;;;8.77;;
8094;SDS011;4090;49.270;8.696;2022-07-23T10:06:08;11.60;;;9.02;;
8094;SDS011;4090;49.270;8.696;2022-07-23T10:09:11;11.15;;;8.25;;
8094;SDS011;4090;49.270;8.696;2022-07-23T10:12:13;11.57;;;8.13;;
8094;SDS011;4090;49.270;8.696;2022-07-23T10:15:14;11.85;;;7.85;;
8094;SDS011;4090;49.270;8.696;2022-07-23T10:17:56;9.00;;;8.07;;
8094;SDS011;4090;49.270;8.696;2022-07-23T10:20:38;10.35;;;7.97;;
8094;SDS011;4090;49.270;8.696;2022-07-23T10:23:24;9.75;;;8.35;;
8094;SDS011;4090;49.270;8.696;2022-07-23T10:26:12;10.15;;;8.35;;
8094;SDS011;4090;49.270;8.696;2022-07-23T10:29:02;10.00;;;8.05;;
8094;SDS011;4090;49.270;8.696;2022-07-23T10:31:55;10.27;;;7.95;;
8094;SDS011;4090;49.270;8.696;2022-07-23T10:34:43;12.52;;;8.50;;
8094;SDS011;4090;49.270;8.696;2022-07-23T10:37:32;12.55;;;8.60;;
8094;SDS011;4090;49.270;8.696;2022-07-23T10:40:21;9.68;;;7.75;;
8094;SDS011;4090;49.270;8.696;2022-07-23T10:43:04;14.15;;;9.23;;
8094;SDS011;4090;49.270;8.696;2022-07-23T10:46:20;10.15;;;7.78;;
8094;SDS011;4090;49.270;8.696;2022-07-23T10:49:22;11.23;;;7.68;;
8094;SDS011;4090;49.270;8.696;2022-07-23T10:52:16;9.52;;;7.57;;
8094;SDS011;4090;49.270;8.696;2022-07-23T10:58:22;8.35;;;7.40;;
8094;SDS011;4090;49.270;8.696;2022-07-23T11:01:31;9.05;;;7.88;;
8094;SDS011;4090;49.270;8.696;2022-07-23T11:04:14;8.88;;;7.63;;
8094;SDS011;4090;49.270;8.696;2022-07-23T11:07:08;9.35;;;7.95;;
8094;SDS011;4090;49.270;8.696;2022-07-23T11:09:52;12.00;;;7.57;;
8094;SDS011;4090;49.270;8.696;2022-07-23T11:12:34;10.75;;;7.60;;
8094;SDS011;4090;49.270;8.696;2022-07-23T11:15:18;11.30;;;7.68;;
8094;SDS011;4090;49.270;8.696;2022-07-23T11:18:00;9.05;;;7.13;;
8094;SDS011;4090;49.270;8.696;2022-07-23T11:20:42;8.68;;;7.20;;
8094;SDS011;4090;49.270;8.696;2022-07-23T11:23:24;9.65;;;7.38;;
8094;SDS011;4090;49.270;8.696;2022-07-23T11:29:43;9.85;;;7.88;;
8094;SDS011;4090;49.270;8.696;2022-07-23T11:32:31;10.50;;;7.45;;
8094;SDS011;4090;49.270;8.696;2022-07-23T11:35:19;8.68;;;6.95;;
8094;SDS011;4090;49.270;8.696;2022-07-23T11:38:04;10.02;;;7.75;;
8094;SDS011;4090;49.270;8.696;2022-07-23T11:40:48;8.95;;;7.40;;
8094;SDS011;4090;49.270;8.696;2022-07-23T11:43:32;8.90;;;6.88;;
8094;SDS011;4090;49.270;8.696;2022-07-23T11:46:18;8.63;;;7.20;;
8094;SDS011;4090;49.270;8.696;2022-07-23T11:49:02;9.77;;;7.43;;
8094;SDS011;4090;49.270;8.696;2022-07-23T11:51:44;9.18;;;6.82;;
8094;SDS011;4090;49.270;8.696;2022-07-23T11:54:26;9.00;;;7.32;;
8094;SDS011;4090;49.270;8.696;2022-07-23T11:57:08;9.20;;;7.55;;
8094;SDS011;4090;49.270;8.696;2022-07-23T11:59:51;9.40;;;7.60;;
8094;SDS011;4090;49.270;8.696;2022-07-23T12:02:36;10.50;;;7.13;;
8094;SDS011;4090;49.270;8.696;2022-07-23T12:05:20;7.63;;;6.90;;
8094;SDS011;4090;49.270;8.696;2022-07-23T12:08:03;10.43;;;7.43;;
8094;SDS011;4090;49.270;8.696;2022-07-23T12:10:47;9.13;;;7.32;;
8094;SDS011;4090;49.270;8.696;2022-07-23T12:13:29;9.48;;;7.18;;
8094;SDS011;4090;49.270;8.696;2022-07-23T12:16:10;9.52;;;7.22;;
8094;SDS011;4090;49.270;8.696;2022-07-23T12:18:52;8.98;;;7.82;;
8094;SDS011;4090;49.270;8.696;2022-07-23T12:21:35;9.40;;;6.68;;
8094;SDS011;4090;49.270;8.696;2022-07-23T12:24:17;8.88;;;6.97;;
8094;SDS011;4090;49.270;8.696;2022-07-23T12:27:08;8.13;;;6.70;;
8094;SDS011;4090;49.270;8.696;2022-07-23T12:29:51;6.82;;;6.10;;
8094;SDS011;4090;49.270;8.696;2022-07-23T12:32:33;7.72;;;6.82;;
8094;SDS011;4090;49.270;8.696;2022-07-23T12:35:15;8.30;;;6.95;;
8094;SDS011;4090;49.270;8.696;2022-07-23T12:38:00;8.93;;;7.10;;
8094;SDS011;4090;49.270;8.696;2022-07-23T12:40:43;7.93;;;6.95;;
8094;SDS011;4090;49.270;8.696;2022-07-23T12:43:27;8.07;;;7.00;;
8094;SDS011;4090;49.270;8.696;2022-07-23T12:46:12;9.30;;;7.50;;
8094;SDS011;4090;49.270;8.696;2022-07-23T12:48:55;7.60;;;6.60;;
8094;SDS011;4090;49.270;8.696;2022-07-23T12:51:37;8.60;;;6.80;;
8094;SDS011;4090;49.270;8.696;2022-07-23T12:54:27;10.80;;;6.85;;
8094;SDS011;4090;49.270;8.696;2022-07-23T12:57:10;6.85;;;6.15;;
8094;SDS011;4090;49.270;8.696;2022-07-23T12:59:51;8.00;;;6.07;;
8094;SDS011;4090;49.270;8.696;2022-07-23T13:02:44;7.85;;;6.30;;
8094;SDS011;4090;49.270;8.696;2022-07-23T13:05:26;9.18;;;6.22;;
8094;SDS011;4090;49.270;8.696;2022-07-23T13:08:08;8.55;;;6.68;;
8094;SDS011;4090;49.270;8.696;2022-07-23T13:10:51;7.07;;;6.38;;
8094;SDS011;4090;49.270;8.696;2022-07-23T13:13:35;7.35;;;6.18;;
8094;SDS011;4090;49.270;8.696;2022-07-23T13:16:17;7.60;;;6.80;;
8094;SDS011;4090;49.270;8.696;2022-07-23T13:18:59;9.85;;;6.60;;
8094;SDS011;4090;49.270;8.696;2022-07-23T13:21:41;8.73;;;6.75;;
8094;SDS011;4090;49.270;8.696;2022-07-23T13:24:23;8.63;;;7.25;;
8094;SDS011;4090;49.270;8.696;2022-07-23T13:27:07;8.18;;;6.65;;
8094;SDS011;4090;49.270;8.696;2022-07-23T13:29:48;7.53;;;6.78;;
8094;SDS011;4090;49.270;8.696;2022-07-23T13:32:30;8.20;;;7.32;;
8094;SDS011;4090;49.270;8.696;2022-07-23T13:35:12;8.77;;;6.95;;
8094;SDS011;4090;49.270;8.696;2022-07-23T13:37:54;8.38;;;7.40;;
8094;SDS011;4090;49.270;8.696;2022-07-23T13:40:36;10.30;;;7.72;;
8094;SDS011;4090;49.270;8.696;2022-07-23T13:43:21;8.05;;;7.28;;
8094;SDS011;4090;49.270;8.696;2022-07-23T13:46:05;7.38;;;6.68;;
8094;SDS011;4090;49.270;8.696;2022-07-23T13:48:47;10.13;;;7.72;;
8094;SDS011;4090;49.270;8.696;2022-07-23T13:51:29;8.02;;;7.13;;
8094;SDS011;4090;49.270;8.696;2022-07-23T13:54:11;9.60;;;7.40;;
8094;SDS011;4090;49.270;8.696;2022-07-23T13:56:52;10.23;;;7.35;;
8094;SDS011;4090;49.270;8.696;2022-07-23T13:59:36;13.13;;;7.80;;
8094;SDS011;4090;49.270;8.696;2022-07-23T14:02:17;8.50;;;7.45;;
8094;SDS011;4090;49.270;8.696;2022-07-23T14:04:59;9.73;;;6.85;;
8094;SDS011;4090;49.270;8.696;2022-07-23T14:07:41;11.50;;;7.35;;
8094;SDS011;4090;49.270;8.696;2022-07-23T14:10:24;9.00;;;7.70;;
8094;SDS011;4090;49.270;8.696;2022-07-23T14:13:06;11.20;;;7.07;;
8094;SDS011;4090;49.270;8.696;2022-07-23T14:15:50;9.95;;;7.93;;
8094;SDS011;4090;49.270;8.696;2022-07-23T14:18:32;9.95;;;7.72;;
8094;SDS011;4090;49.270;8.696;2022-07-23T14:21:14;9.77;;;7.05;;
8094;SDS011;4090;49.270;8.696;2022-07-23T14:23:56;9.15;;;7.35;;
8094;SDS011;4090;49.270;8.696;2022-07-23T14:26:37;18.85;;;8.10;;
8094;SDS011;4090;49.270;8.696;2022-07-23T14:29:19;9.68;;;7.28;;
8094;SDS011;4090;49.270;8.696;2022-07-23T14:32:03;8.43;;;7.20;;
8094;SDS011;4090;49.270;8.696;2022-07-23T14:34:45;9.95;;;7.15;;
8094;SDS011;4090;49.270;8.696;2022-07-23T14:37:27;8.48;;;7.20;;
8094;SDS011;4090;49.270;8.696;2022-07-23T14:40:09;7.50;;;6.80;;
8094;SDS011;4090;49.270;8.696;2022-07-23T14:42:51;8.07;;;7.32;;
8094;SDS011;4090;49.270;8.696;2022-07-23T14:45:33;9.13;;;6.93;;
8094;SDS011;4090;49.270;8.696;2022-07-23T14:48:16;8.65;;;7.22;;
8094;SDS011;4090;49.270;8.696;2022-07-23T14:50:58;8.48;;;6.63;;
8094;SDS011;4090;49.270;8.696;2022-07-23T14:53:40;8.60;;;7.70;;
8094;SDS011;4090;49.270;8.696;2022-07-23T14:56:22;9.93;;;7.57;;
8094;SDS011;4090;49.270;8.696;2022-07-23T14:59:04;17.98;;;9.55;;
8094;SDS011;4090;49.270;8.696;2022-07-23T15:01:46;9.45;;;7.25;;
8094;SDS011;4090;49.270;8.696;2022-07-23T15:04:29;11.80;;;7.90;;
8094;SDS011;4090;49.270;8.696;2022-07-23T15:07:11;9.30;;;7.50;;
8094;SDS011;4090;49.270;8.696;2022-07-23T15:09:53;10.15;;;8.13;;
8094;SDS011;4090;49.270;8.696;2022-07-23T15:12:35;10.90;;;7.68;;
8094;SDS011;4090;49.270;8.696;2022-07-23T15:15:17;8.90;;;7.40;;
8094;SDS011;4090;49.270;8.696;2022-07-23T15:17:59;8.05;;;6.85;;
8094;SDS011;4090;49.270;8.696;2022-07-23T15:20:42;7.97;;;7.18;;
8094;SDS011;4090;49.270;8.696;2022-07-23T15:23:24;7.78;;;6.97;;
8094;SDS011;4090;49.270;8.696;2022-07-23T15:26:06;9.30;;;7.40;;
8094;SDS011;4090;49.270;8.696;2022-07-23T15:28:48;8.07;;;7.28;;
8094;SDS011;4090;49.270;8.696;2022-07-23T15:31:30;9.32;;;7.55;;
8094;SDS011;4090;49.270;8.696;2022-07-23T15:34:12;8.10;;;6.95;;
8094;SDS011;4090;49.270;8.696;2022-07-23T15:36:56;8.50;;;7.30;;
8094;SDS011;4090;49.270;8.696;2022-07-23T15:39:40;8.00;;;7.05;;
8094;SDS011;4090;49.270;8.696;2022-07-23T15:42:22;7.70;;;6.90;;
8094;SDS011;4090;49.270;8.696;2022-07-23T15:45:05;8.40;;;7.50;;
8094;SDS011;4090;49.270;8.696;2022-07-23T15:47:47;10.73;;;7.82;;
8094;SDS011;4090;49.270;8.696;2022-07-23T15:50:29;9.60;;;6.78;;
8094;SDS011;4090;49.270;8.696;2022-07-23T15:53:12;8.52;;;7.53;;
8094;SDS011;4090;49.270;8.696;2022-07-23T15:55:55;11.20;;;7.78;;
8094;SDS011;4090;49.270;8.696;2022-07-23T15:58:37;9.52;;;7.80;;
8094;SDS011;4090;49.270;8.696;2022-07-23T16:01:19;8.10;;;7.30;;
8094;SDS011;4090;49.270;8.696;2022-07-23T16:04:00;9.43;;;7.45;;
8094;SDS011;4090;49.270;8.696;2022-07-23T16:06:42;7.75;;;7.03;;
8094;SDS011;4090;49.270;8.696;2022-07-23T16:09:25;8.40;;;7.55;;
8094;SDS011;4090;49.270;8.696;2022-07-23T16:12:07;8.30;;;7.50;;
8094;SDS011;4090;49.270;8.696;2022-07-23T16:14:50;51.20;;;10.88;;
8094;SDS011;4090;49.270;8.696;2022-07-23T16:17:32;7.53;;;6.72;;
8094;SDS011;4090;49.270;8.696;2022-07-23T16:20:14;9.43;;;7.20;;
8094;SDS011;4090;49.270;8.696;2022-07-23T16:22:56;10.25;;;6.88;;
8094;SDS011;4090;49.270;8.696;2022-07-23T16:25:39;9.20;;;7.35;;
8094;SDS011;4090;49.270;8.696;2022-07-23T16:28:21;8.43;;;7.30;;
8094;SDS011;4090;49.270;8.696;2022-07-23T16:31:03;9.90;;;7.63;;
8094;SDS011;4090;49.270;8.696;2022-07-23T16:33:45;9.70;;;7.10;;
8094;SDS011;4090;49.270;8.696;2022-07-23T16:36:27;7.82;;;6.80;;
8094;SDS011;4090;49.270;8.696;2022-07-23T16:39:09;8.88;;;7.32;;
8094;SDS011;4090;49.270;8.696;2022-07-23T16:41:52;7.88;;;7.15;;
8094;SDS011;4090;49.270;8.696;2022-07-23T16:44:34;7.60;;;6.45;;
8094;SDS011;4090;49.270;8.696;2022-07-23T16:47:16;8.40;;;6.75;;
8094;SDS011;4090;49.270;8.696;2022-07-23T16:49:59;8.13;;;7.03;;
8094;SDS011;4090;49.270;8.696;2022-07-23T16:52:42;7.68;;;6.85;;
8094;SDS011;4090;49.270;8.696;2022-07-23T16:55:23;7.85;;;7.00;;